sensor_id;sensor_type;location;lat;lon;timestamp;pressure;altitude;pressure_sealevel;temperature;humidity
82418;BME280;72059;53.734;10.260;2023-09-18T00:00:47;100598.98;;;18.46;73.22
82418;BME280;72059;53.734;10.260;2023-09-18T00:03:18;100594.63;;;18.43;73.33
82418;BME280;72059;53.734;10.260;2023-09-18T00:05:52;100593.32;;;18.40;73.40
82418;BME280;72059;53.734;10.260;2023-09-18T00:08:20;100591.16;;;18.36;73.45
82418;BME280;72059;53.734;10.260;2023-09-18T00:10:52;100586.34;;;18.33;73.55
82418;BME280;72059;53.734;10.260;2023-09-18T00:13:20;100588.95;;;18.31;73.59
82418;BME280;72059;53.734;10.260;2023-09-18T00:15:48;100580.67;;;18.27;73.64
82418;BME280;72059;53.734;10.260;2023-09-18T00:18:17;100580.23;;;18.24;73.77
82418;BME280;72059;53.734;10.260;2023-09-18T00:20:45;100578.50;;;18.20;73.85
82418;BME280;72059;53.734;10.260;2023-09-18T00:23:14;100577.19;;;18.17;73.96
82418;BME280;72059;53.734;10.260;2023-09-18T00:25:42;100568.47;;;18.15;74.01
82418;BME280;72059;53.734;10.260;2023-09-18T00:28:09;100567.16;;;18.12;74.11
82418;BME280;72059;53.734;10.260;2023-09-18T00:30:39;100563.23;;;18.10;74.11
82418;BME280;72059;53.734;10.260;2023-09-18T00:33:07;100564.53;;;18.09;74.13
82418;BME280;72059;53.734;10.260;2023-09-18T00:35:34;100565.81;;;18.07;74.16
82418;BME280;72059;53.734;10.260;2023-09-18T00:38:02;100555.33;;;18.06;74.16
82418;BME280;72059;53.734;10.260;2023-09-18T00:40:30;100549.67;;;18.05;74.15
82418;BME280;72059;53.734;10.260;2023-09-18T00:42:57;100541.80;;;18.02;74.19
82418;BME280;72059;53.734;10.260;2023-09-18T00:45:25;100545.30;;;17.99;74.24
82418;BME280;72059;53.734;10.260;2023-09-18T00:47:52;100544.45;;;17.97;74.28
82418;BME280;72059;53.734;10.260;2023-09-18T00:50:21;100536.13;;;17.96;74.32
82418;BME280;72059;53.734;10.260;2023-09-18T00:52:48;100531.78;;;17.93;74.38
82418;BME280;72059;53.734;10.260;2023-09-18T00:55:16;100523.49;;;17.91;74.38
82418;BME280;72059;53.734;10.260;2023-09-18T00:57:45;100521.30;;;17.90;74.39
82418;BME280;72059;53.734;10.260;2023-09-18T01:00:13;100519.56;;;17.89;74.38
82418;BME280;72059;53.734;10.260;2023-09-18T01:02:43;100520.44;;;17.86;74.46
82418;BME280;72059;53.734;10.260;2023-09-18T01:05:11;100515.63;;;17.84;74.49
82418;BME280;72059;53.734;10.260;2023-09-18T01:07:38;100516.09;;;17.84;74.48
82418;BME280;72059;53.734;10.260;2023-09-18T01:10:07;100515.63;;;17.83;74.45
82418;BME280;72059;53.734;10.260;2023-09-18T01:12:46;100508.66;;;17.82;74.45
82418;BME280;72059;53.734;10.260;2023-09-18T01:15:17;100516.51;;;17.82;74.42
82418;BME280;72059;53.734;10.260;2023-09-18T01:17:44;100513.45;;;17.79;74.42
82418;BME280;72059;53.734;10.260;2023-09-18T01:20:12;100514.77;;;17.78;74.42
82418;BME280;72059;53.734;10.260;2023-09-18T01:22:40;100515.64;;;17.77;74.45
82418;BME280;72059;53.734;10.260;2023-09-18T01:25:07;100515.22;;;17.77;74.46
82418;BME280;72059;53.734;10.260;2023-09-18T01:27:35;100510.41;;;17.77;74.46
82418;BME280;72059;53.734;10.260;2023-09-18T01:30:02;100508.22;;;17.75;74.49
82418;BME280;72059;53.734;10.260;2023-09-18T01:32:32;100501.67;;;17.73;74.52
82418;BME280;72059;53.734;10.260;2023-09-18T01:35:00;100499.93;;;17.72;74.47
82418;BME280;72059;53.734;10.260;2023-09-18T01:37:31;100492.08;;;17.70;74.54
82418;BME280;72059;53.734;10.260;2023-09-18T01:40:02;100478.98;;;17.67;74.55
82418;BME280;72059;53.734;10.260;2023-09-18T01:42:33;100479.87;;;17.66;74.56
82418;BME280;72059;53.734;10.260;2023-09-18T01:45:01;100472.47;;;17.66;74.61
82418;BME280;72059;53.734;10.260;2023-09-18T01:47:29;100467.23;;;17.64;74.59
82418;BME280;72059;53.734;10.260;2023-09-18T01:49:56;100465.47;;;17.63;74.61
82418;BME280;72059;53.734;10.260;2023-09-18T01:52:24;100461.11;;;17.62;74.63
82418;BME280;72059;53.734;10.260;2023-09-18T01:54:51;100458.06;;;17.61;74.62
82418;BME280;72059;53.734;10.260;2023-09-18T01:57:19;100448.48;;;17.57;74.70
82418;BME280;72059;53.734;10.260;2023-09-18T01:59:46;100450.66;;;17.56;74.79
82418;BME280;72059;53.734;10.260;2023-09-18T02:02:14;100448.05;;;17.54;74.84
82418;BME280;72059;53.734;10.260;2023-09-18T02:04:41;100441.50;;;17.53;74.90
82418;BME280;72059;53.734;10.260;2023-09-18T02:07:09;100436.69;;;17.51;74.97
82418;BME280;72059;53.734;10.260;2023-09-18T02:09:37;100438.45;;;17.49;75.02
82418;BME280;72059;53.734;10.260;2023-09-18T02:12:04;100433.21;;;17.45;75.11
82418;BME280;72059;53.734;10.260;2023-09-18T02:14:32;100428.86;;;17.43;75.25
82418;BME280;72059;53.734;10.260;2023-09-18T02:17:00;100423.19;;;17.39;75.39
82418;BME280;72059;53.734;10.260;2023-09-18T02:19:27;100417.52;;;17.34;75.61
82418;BME280;72059;53.734;10.260;2023-09-18T02:21:56;100417.94;;;17.31;75.77
82418;BME280;72059;53.734;10.260;2023-09-18T02:24:24;100414.89;;;17.27;75.94
82418;BME280;72059;53.734;10.260;2023-09-18T02:26:51;100411.83;;;17.21;76.15
82418;BME280;72059;53.734;10.260;2023-09-18T02:29:19;100411.40;;;17.17;76.33
82418;BME280;72059;53.734;10.260;2023-09-18T02:31:46;100403.11;;;17.13;76.49
82418;BME280;72059;53.734;10.260;2023-09-18T02:34:13;100400.48;;;17.09;76.70
82418;BME280;72059;53.734;10.260;2023-09-18T02:36:41;100398.32;;;17.06;76.84
82418;BME280;72059;53.734;10.260;2023-09-18T02:39:08;100396.55;;;17.03;76.92
82418;BME280;72059;53.734;10.260;2023-09-18T02:41:36;100388.69;;;17.00;76.97
82418;BME280;72059;53.734;10.260;2023-09-18T02:44:03;100387.38;;;16.99;77.06
82418;BME280;72059;53.734;10.260;2023-09-18T02:46:31;100383.03;;;16.98;77.12
82418;BME280;72059;53.734;10.260;2023-09-18T02:48:58;100376.91;;;16.95;77.18
82418;BME280;72059;53.734;10.260;2023-09-18T02:51:26;100372.57;;;16.96;77.18
82418;BME280;72059;53.734;10.260;2023-09-18T02:53:53;100365.58;;;16.96;77.22
82418;BME280;72059;53.734;10.260;2023-09-18T02:56:21;100362.96;;;16.95;77.23
82418;BME280;72059;53.734;10.260;2023-09-18T02:58:48;100360.34;;;16.93;77.26
82418;BME280;72059;53.734;10.260;2023-09-18T03:01:15;100359.03;;;16.93;77.33
82418;BME280;72059;53.734;10.260;2023-09-18T03:03:43;100350.77;;;16.92;77.32
82418;BME280;72059;53.734;10.260;2023-09-18T03:06:11;100351.64;;;16.91;77.42
82418;BME280;72059;53.734;10.260;2023-09-18T03:08:38;100360.36;;;16.90;77.44
82418;BME280;72059;53.734;10.260;2023-09-18T03:11:12;100358.60;;;16.91;77.46
82418;BME280;72059;53.734;10.260;2023-09-18T03:13:44;100352.52;;;16.90;77.52
82418;BME280;72059;53.734;10.260;2023-09-18T03:16:14;100350.75;;;16.89;77.55
82418;BME280;72059;53.734;10.260;2023-09-18T03:18:41;100351.63;;;16.88;77.60
82418;BME280;72059;53.734;10.260;2023-09-18T03:21:09;100347.70;;;16.85;77.66
82418;BME280;72059;53.734;10.260;2023-09-18T03:23:36;100348.16;;;16.83;77.80
82418;BME280;72059;53.734;10.260;2023-09-18T03:26:04;100350.77;;;16.81;77.90
82418;BME280;72059;53.734;10.260;2023-09-18T03:28:31;100355.09;;;16.79;77.99
82418;BME280;72059;53.734;10.260;2023-09-18T03:30:59;100356.86;;;16.77;78.09
82418;BME280;72059;53.734;10.260;2023-09-18T03:33:26;100349.02;;;16.76;78.15
82418;BME280;72059;53.734;10.260;2023-09-18T03:35:53;100344.66;;;16.75;78.14
82418;BME280;72059;53.734;10.260;2023-09-18T03:38:23;100339.86;;;16.76;78.09
82418;BME280;72059;53.734;10.260;2023-09-18T03:40:51;100337.25;;;16.76;78.11
82418;BME280;72059;53.734;10.260;2023-09-18T03:43:18;100327.67;;;16.75;78.07
82418;BME280;72059;53.734;10.260;2023-09-18T03:45:45;100318.53;;;16.75;78.08
82418;BME280;72059;53.734;10.260;2023-09-18T03:48:13;100319.38;;;16.75;78.00
82418;BME280;72059;53.734;10.260;2023-09-18T03:50:40;100310.69;;;16.75;77.98
82418;BME280;72059;53.734;10.260;2023-09-18T03:53:09;100300.66;;;16.74;77.97
82418;BME280;72059;53.734;10.260;2023-09-18T03:55:37;100295.86;;;16.74;77.94
82418;BME280;72059;53.734;10.260;2023-09-18T03:58:05;100283.24;;;16.73;77.93
82418;BME280;72059;53.734;10.260;2023-09-18T04:00:32;100285.39;;;16.72;77.92
82418;BME280;72059;53.734;10.260;2023-09-18T04:03:00;100285.42;;;16.70;77.95
82418;BME280;72059;53.734;10.260;2023-09-18T04:05:27;100283.23;;;16.70;78.03
82418;BME280;72059;53.734;10.260;2023-09-18T04:07:54;100274.52;;;16.69;78.01
82418;BME280;72059;53.734;10.260;2023-09-18T04:10:22;100267.13;;;16.67;78.04
82418;BME280;72059;53.734;10.260;2023-09-18T04:12:50;100264.05;;;16.68;78.08
82418;BME280;72059;53.734;10.260;2023-09-18T04:15:18;100261.01;;;16.65;78.13
82418;BME280;72059;53.734;10.260;2023-09-18T04:17:46;100251.44;;;16.63;78.21
82418;BME280;72059;53.734;10.260;2023-09-18T04:20:14;100247.09;;;16.62;78.25
82418;BME280;72059;53.734;10.260;2023-09-18T04:22:44;100251.88;;;16.59;78.35
82418;BME280;72059;53.734;10.260;2023-09-18T04:25:12;100253.61;;;16.58;78.44
82418;BME280;72059;53.734;10.260;2023-09-18T04:27:40;100249.26;;;16.56;78.46
82418;BME280;72059;53.734;10.260;2023-09-18T04:30:07;100240.98;;;16.53;78.56
82418;BME280;72059;53.734;10.260;2023-09-18T04:32:37;100241.84;;;16.52;78.65
82418;BME280;72059;53.734;10.260;2023-09-18T04:35:05;100241.41;;;16.50;78.69
82418;BME280;72059;53.734;10.260;2023-09-18T04:37:35;100240.98;;;16.49;78.74
82418;BME280;72059;53.734;10.260;2023-09-18T04:40:03;100237.06;;;16.49;78.75
82418;BME280;72059;53.734;10.260;2023-09-18T04:42:30;100227.91;;;16.49;78.75
82418;BME280;72059;53.734;10.260;2023-09-18T04:44:58;100227.91;;;16.49;78.73
82418;BME280;72059;53.734;10.260;2023-09-18T04:47:25;100225.73;;;16.50;78.73
82418;BME280;72059;53.734;10.260;2023-09-18T04:49:53;100217.89;;;16.48;78.70
82418;BME280;72059;53.734;10.260;2023-09-18T04:52:20;100228.80;;;16.51;78.68
82418;BME280;72059;53.734;10.260;2023-09-18T04:54:48;100222.70;;;16.50;78.63
82418;BME280;72059;53.734;10.260;2023-09-18T04:57:15;100225.30;;;16.50;78.64
82418;BME280;72059;53.734;10.260;2023-09-18T04:59:42;100217.47;;;16.49;78.65
82418;BME280;72059;53.734;10.260;2023-09-18T05:02:10;100216.58;;;16.48;78.66
82418;BME280;72059;53.734;10.260;2023-09-18T05:04:37;100203.98;;;16.48;78.71
82418;BME280;72059;53.734;10.260;2023-09-18T05:07:05;100194.38;;;16.48;78.71
82418;BME280;72059;53.734;10.260;2023-09-18T05:09:32;100187.00;;;16.49;78.71
82418;BME280;72059;53.734;10.260;2023-09-18T05:12:02;100180.02;;;16.50;78.69
82418;BME280;72059;53.734;10.260;2023-09-18T05:14:29;100182.64;;;16.54;78.58
82418;BME280;72059;53.734;10.260;2023-09-18T05:16:57;100179.58;;;16.58;78.46
82418;BME280;72059;53.734;10.260;2023-09-18T05:19:24;100171.31;;;16.58;78.31
82418;BME280;72059;53.734;10.260;2023-09-18T05:21:52;100169.56;;;16.67;78.11
82418;BME280;72059;53.734;10.260;2023-09-18T05:24:19;100170.42;;;16.72;77.96
82418;BME280;72059;53.734;10.260;2023-09-18T05:26:48;100160.42;;;16.75;77.87
82418;BME280;72059;53.734;10.260;2023-09-18T05:29:16;100155.16;;;16.78;77.79
82418;BME280;72059;53.734;10.260;2023-09-18T05:31:43;100146.91;;;16.81;77.69
82418;BME280;72059;53.734;10.260;2023-09-18T05:34:12;100127.73;;;16.79;77.61
82418;BME280;72059;53.734;10.260;2023-09-18T05:36:39;100132.53;;;16.88;77.59
82418;BME280;72059;53.734;10.260;2023-09-18T05:39:07;100124.66;;;16.89;77.56
82418;BME280;72059;53.734;10.260;2023-09-18T05:41:39;100121.61;;;16.90;77.57
82418;BME280;72059;53.734;10.260;2023-09-18T05:44:07;100116.39;;;16.93;77.45
82418;BME280;72059;53.734;10.260;2023-09-18T05:46:35;100117.23;;;16.95;77.36
82418;BME280;72059;53.734;10.260;2023-09-18T05:49:03;100115.92;;;17.00;77.27
82418;BME280;72059;53.734;10.260;2023-09-18T05:51:31;100111.14;;;17.05;77.12
82418;BME280;72059;53.734;10.260;2023-09-18T05:53:59;100111.56;;;17.11;76.92
82418;BME280;72059;53.734;10.260;2023-09-18T05:56:28;100109.79;;;17.16;76.71
82418;BME280;72059;53.734;10.260;2023-09-18T05:58:55;100115.43;;;17.24;76.48
82418;BME280;72059;53.734;10.260;2023-09-18T06:01:23;100113.65;;;17.32;76.20
82418;BME280;72059;53.734;10.260;2023-09-18T06:03:51;100109.71;;;17.38;75.95
82418;BME280;72059;53.734;10.260;2023-09-18T06:06:18;100110.53;;;17.48;75.64
82418;BME280;72059;53.734;10.260;2023-09-18T06:08:46;100103.92;;;17.60;75.04
82418;BME280;72059;53.734;10.260;2023-09-18T06:11:13;100099.16;;;17.57;75.06
82418;BME280;72059;53.734;10.260;2023-09-18T06:13:41;100092.61;;;17.57;75.11
82418;BME280;72059;53.734;10.260;2023-09-18T06:16:08;100088.23;;;17.57;75.15
82418;BME280;72059;53.734;10.260;2023-09-18T06:18:35;100077.33;;;17.58;75.19
82418;BME280;72059;53.734;10.260;2023-09-18T06:21:04;100075.55;;;17.63;75.12
82418;BME280;72059;53.734;10.260;2023-09-18T06:23:32;100070.30;;;17.68;75.11
82418;BME280;72059;53.734;10.260;2023-09-18T06:25:59;100065.86;;;17.78;74.87
82418;BME280;72059;53.734;10.260;2023-09-18T06:28:27;100063.14;;;17.90;74.66
82418;BME280;72059;53.734;10.260;2023-09-18T06:30:55;100062.59;;;18.08;73.66
82418;BME280;72059;53.734;10.260;2023-09-18T06:33:23;100064.23;;;18.21;73.54
82418;BME280;72059;53.734;10.260;2023-09-18T06:35:50;100057.14;;;18.33;73.21
82418;BME280;72059;53.734;10.260;2023-09-18T06:38:18;100057.88;;;18.47;72.81
82418;BME280;72059;53.734;10.260;2023-09-18T06:40:47;100051.67;;;18.58;72.37
82418;BME280;72059;53.734;10.260;2023-09-18T06:43:14;100057.22;;;18.68;72.23
82418;BME280;72059;53.734;10.260;2023-09-18T06:45:41;100058.42;;;18.81;71.71
82418;BME280;72059;53.734;10.260;2023-09-18T06:48:09;100052.62;;;18.91;71.48
82418;BME280;72059;53.734;10.260;2023-09-18T06:50:36;100055.97;;;19.04;71.37
82418;BME280;72059;53.734;10.260;2023-09-18T06:53:05;100040.44;;;19.23;70.75
82418;BME280;72059;53.734;10.260;2023-09-18T06:55:32;100033.54;;;19.47;69.95
82418;BME280;72059;53.734;10.260;2023-09-18T06:58:00;100035.93;;;19.62;69.50
82418;BME280;72059;53.734;10.260;2023-09-18T07:00:27;100039.65;;;19.76;69.10
82418;BME280;72059;53.734;10.260;2023-09-18T07:02:54;100032.94;;;19.87;68.77
82418;BME280;72059;53.734;10.260;2023-09-18T07:05:22;100032.79;;;19.95;68.59
82418;BME280;72059;53.734;10.260;2023-09-18T07:07:49;100034.41;;;20.06;68.42
82418;BME280;72059;53.734;10.260;2023-09-18T07:10:17;100028.14;;;20.14;68.16
82418;BME280;72059;53.734;10.260;2023-09-18T07:12:45;100018.73;;;20.25;68.01
82418;BME280;72059;53.734;10.260;2023-09-18T07:15:12;100013.66;;;20.39;67.69
82418;BME280;72059;53.734;10.260;2023-09-18T07:17:40;100009.99;;;20.48;67.43
82418;BME280;72059;53.734;10.260;2023-09-18T07:20:07;99987.05;;;20.56;66.84
82418;BME280;72059;53.734;10.260;2023-09-18T07:22:36;99993.04;;;20.63;66.48
82418;BME280;72059;53.734;10.260;2023-09-18T07:25:04;100004.27;;;20.73;66.46
82418;BME280;72059;53.734;10.260;2023-09-18T07:27:33;99992.64;;;20.83;66.09
82418;BME280;72059;53.734;10.260;2023-09-18T07:30:02;99988.52;;;20.94;65.85
82418;BME280;72059;53.734;10.260;2023-09-18T07:32:30;99977.56;;;21.13;65.61
82418;BME280;72059;53.734;10.260;2023-09-18T07:34:58;99961.89;;;21.28;65.00
82418;BME280;72059;53.734;10.260;2023-09-18T07:37:26;99961.39;;;21.48;64.42
82418;BME280;72059;53.734;10.260;2023-09-18T07:39:54;99970.09;;;21.70;63.68
82418;BME280;72059;53.734;10.260;2023-09-18T07:42:25;99958.61;;;21.91;63.00
82418;BME280;72059;53.734;10.260;2023-09-18T07:44:53;99949.81;;;22.08;61.74
82418;BME280;72059;53.734;10.260;2023-09-18T07:47:21;99945.48;;;22.23;61.79
82418;BME280;72059;53.734;10.260;2023-09-18T07:49:48;99941.38;;;22.44;61.28
82418;BME280;72059;53.734;10.260;2023-09-18T07:52:17;99936.41;;;22.65;60.59
82418;BME280;72059;53.734;10.260;2023-09-18T07:54:44;99933.89;;;22.90;60.21
82418;BME280;72059;53.734;10.260;2023-09-18T07:57:12;99928.47;;;23.10;59.52
82418;BME280;72059;53.734;10.260;2023-09-18T07:59:39;99927.59;;;23.23;59.34
82418;BME280;72059;53.734;10.260;2023-09-18T08:02:08;99938.36;;;23.30;59.19
82418;BME280;72059;53.734;10.260;2023-09-18T08:04:36;99936.08;;;23.33;58.94
82418;BME280;72059;53.734;10.260;2023-09-18T08:07:04;99947.91;;;23.34;59.31
82418;BME280;72059;53.734;10.260;2023-09-18T08:09:33;99953.91;;;23.41;59.02
82418;BME280;72059;53.734;10.260;2023-09-18T08:12:06;99953.29;;;23.46;59.03
82418;BME280;72059;53.734;10.260;2023-09-18T08:14:35;99946.69;;;23.46;58.22
82418;BME280;72059;53.734;10.260;2023-09-18T08:17:03;99943.95;;;23.34;58.43
82418;BME280;72059;53.734;10.260;2023-09-18T08:19:31;99937.81;;;23.35;58.17
82418;BME280;72059;53.734;10.260;2023-09-18T08:21:59;99946.19;;;23.33;58.52
82418;BME280;72059;53.734;10.260;2023-09-18T08:24:26;99936.73;;;23.26;58.97
82418;BME280;72059;53.734;10.260;2023-09-18T08:26:54;99932.73;;;23.14;58.92
82418;BME280;72059;53.734;10.260;2023-09-18T08:29:22;99923.77;;;23.05;59.25
82418;BME280;72059;53.734;10.260;2023-09-18T08:31:50;99915.50;;;23.02;59.33
82418;BME280;72059;53.734;10.260;2023-09-18T08:34:17;99912.47;;;23.01;58.67
82418;BME280;72059;53.734;10.260;2023-09-18T08:36:45;99907.77;;;22.96;59.29
82418;BME280;72059;53.734;10.260;2023-09-18T08:39:12;99915.80;;;22.93;59.59
82418;BME280;72059;53.734;10.260;2023-09-18T08:41:42;99915.20;;;22.98;59.46
82418;BME280;72059;53.734;10.260;2023-09-18T08:44:09;99904.03;;;23.03;59.33
82418;BME280;72059;53.734;10.260;2023-09-18T08:46:37;99904.34;;;23.07;59.07
82418;BME280;72059;53.734;10.260;2023-09-18T08:49:05;99900.19;;;23.14;58.99
82418;BME280;72059;53.734;10.260;2023-09-18T08:51:34;99911.66;;;23.26;58.62
82418;BME280;72059;53.734;10.260;2023-09-18T08:54:04;99935.68;;;23.32;57.94
82418;BME280;72059;53.734;10.260;2023-09-18T08:56:33;99957.27;;;23.31;58.27
82418;BME280;72059;53.734;10.260;2023-09-18T08:59:01;99958.59;;;23.31;58.37
82418;BME280;72059;53.734;10.260;2023-09-18T09:01:28;99958.52;;;23.33;57.77
82418;BME280;72059;53.734;10.260;2023-09-18T09:03:55;99956.05;;;23.28;58.07
82418;BME280;72059;53.734;10.260;2023-09-18T09:06:23;99953.71;;;23.32;57.52
82418;BME280;72059;53.734;10.260;2023-09-18T09:08:50;99951.12;;;23.31;57.14
82418;BME280;72059;53.734;10.260;2023-09-18T09:11:18;99947.91;;;23.21;57.66
82418;BME280;72059;53.734;10.260;2023-09-18T09:13:46;99944.75;;;23.09;57.86
82418;BME280;72059;53.734;10.260;2023-09-18T09:16:13;99942.19;;;22.93;58.35
82418;BME280;72059;53.734;10.260;2023-09-18T09:18:50;99944.69;;;22.82;58.92
82418;BME280;72059;53.734;10.260;2023-09-18T09:21:17;99934.63;;;22.80;59.20
82418;BME280;72059;53.734;10.260;2023-09-18T09:23:50;99928.56;;;22.92;58.93
82418;BME280;72059;53.734;10.260;2023-09-18T09:26:20;99926.81;;;23.06;58.65
82418;BME280;72059;53.734;10.260;2023-09-18T09:28:48;99924.95;;;23.23;58.39
82418;BME280;72059;53.734;10.260;2023-09-18T09:31:27;99909.80;;;23.30;58.14
82418;BME280;72059;53.734;10.260;2023-09-18T09:33:55;99915.67;;;23.40;57.93
82418;BME280;72059;53.734;10.260;2023-09-18T09:36:24;99909.67;;;23.48;57.78
82418;BME280;72059;53.734;10.260;2023-09-18T09:38:57;99902.16;;;23.62;57.73
82418;BME280;72059;53.734;10.260;2023-09-18T09:41:25;99898.59;;;23.89;56.90
82418;BME280;72059;53.734;10.260;2023-09-18T09:43:53;99898.04;;;24.05;56.50
82418;BME280;72059;53.734;10.260;2023-09-18T09:46:22;99903.78;;;24.18;56.43
82418;BME280;72059;53.734;10.260;2023-09-18T09:49:06;99897.33;;;24.37;56.13
82418;BME280;72059;53.734;10.260;2023-09-18T09:51:34;99896.41;;;24.50;55.71
82418;BME280;72059;53.734;10.260;2023-09-18T09:54:01;99899.11;;;24.60;55.53
82418;BME280;72059;53.734;10.260;2023-09-18T09:56:42;99896.48;;;24.83;55.32
82418;BME280;72059;53.734;10.260;2023-09-18T09:59:12;99905.94;;;24.90;55.36
82418;BME280;72059;53.734;10.260;2023-09-18T10:01:40;99905.74;;;24.83;55.14
82418;BME280;72059;53.734;10.260;2023-09-18T10:04:14;99900.38;;;24.62;55.65
82418;BME280;72059;53.734;10.260;2023-09-18T10:06:47;99901.70;;;24.50;56.12
82418;BME280;72059;53.734;10.260;2023-09-18T10:09:14;99894.52;;;24.42;56.48
82418;BME280;72059;53.734;10.260;2023-09-18T10:11:45;99896.81;;;24.27;56.85
82418;BME280;72059;53.734;10.260;2023-09-18T10:14:19;99897.33;;;24.13;57.35
82418;BME280;72059;53.734;10.260;2023-09-18T10:16:53;99883.95;;;24.04;57.43
82418;BME280;72059;53.734;10.260;2023-09-18T10:19:39;99883.77;;;23.97;58.02
82418;BME280;72059;53.734;10.260;2023-09-18T10:22:36;99886.44;;;24.09;57.68
82418;BME280;72059;53.734;10.260;2023-09-18T10:25:07;99883.59;;;24.27;57.73
82418;BME280;72059;53.734;10.260;2023-09-18T10:27:34;99890.11;;;24.42;56.85
82418;BME280;72059;53.734;10.260;2023-09-18T10:30:05;99891.59;;;24.37;57.17
82418;BME280;72059;53.734;10.260;2023-09-18T10:32:34;99891.78;;;24.21;57.61
82418;BME280;72059;53.734;10.260;2023-09-18T10:35:02;99895.95;;;24.01;58.13
82418;BME280;72059;53.734;10.260;2023-09-18T10:37:30;99884.21;;;23.84;58.46
82418;BME280;72059;53.734;10.260;2023-09-18T10:39:59;99896.92;;;23.86;58.57
82418;BME280;72059;53.734;10.260;2023-09-18T10:42:27;99889.10;;;23.95;58.66
82418;BME280;72059;53.734;10.260;2023-09-18T10:44:57;99888.59;;;24.23;57.92
82418;BME280;72059;53.734;10.260;2023-09-18T10:47:24;99884.73;;;24.68;56.38
82418;BME280;72059;53.734;10.260;2023-09-18T10:49:52;99886.34;;;24.82;56.31
82418;BME280;72059;53.734;10.260;2023-09-18T10:52:20;99887.57;;;24.97;56.00
82418;BME280;72059;53.734;10.260;2023-09-18T10:54:47;99904.03;;;25.16;55.17
82418;BME280;72059;53.734;10.260;2023-09-18T10:57:15;99902.41;;;25.12;55.17
82418;BME280;72059;53.734;10.260;2023-09-18T10:59:46;99898.41;;;25.24;55.12
82418;BME280;72059;53.734;10.260;2023-09-18T11:02:17;99887.03;;;25.32;54.96
82418;BME280;72059;53.734;10.260;2023-09-18T11:04:45;99886.84;;;25.37;55.00
82418;BME280;72059;53.734;10.260;2023-09-18T11:07:21;99908.21;;;25.32;54.61
82418;BME280;72059;53.734;10.260;2023-09-18T11:09:49;99901.72;;;25.19;54.75
82418;BME280;72059;53.734;10.260;2023-09-18T11:12:17;99901.23;;;25.09;55.70
82418;BME280;72059;53.734;10.260;2023-09-18T11:17:37;99904.84;;;25.61;54.57
82418;BME280;72059;53.734;10.260;2023-09-18T11:20:15;99912.98;;;25.45;54.54
82418;BME280;72059;53.734;10.260;2023-09-18T11:22:40;99904.30;;;25.31;55.51
82418;BME280;72059;53.734;10.260;2023-09-18T11:25:52;99891.35;;;25.45;55.86
82418;BME280;72059;53.734;10.260;2023-09-18T11:27:54;99891.98;;;25.62;55.29
82418;BME280;72059;53.734;10.260;2023-09-18T11:30:22;99898.59;;;25.83;54.27
82418;BME280;72059;53.734;10.260;2023-09-18T11:32:50;99894.97;;;25.75;54.35
82418;BME280;72059;53.734;10.260;2023-09-18T11:35:18;99897.09;;;25.67;54.91
82418;BME280;72059;53.734;10.260;2023-09-18T11:37:47;99896.42;;;25.62;55.21
82418;BME280;72059;53.734;10.260;2023-09-18T11:40:33;99895.64;;;25.60;55.39
82418;BME280;72059;53.734;10.260;2023-09-18T11:43:21;99904.63;;;25.66;55.17
82418;BME280;72059;53.734;10.260;2023-09-18T11:46:00;99904.02;;;25.80;54.99
82418;BME280;72059;53.734;10.260;2023-09-18T11:48:29;99903.08;;;26.12;54.13
82418;BME280;72059;53.734;10.260;2023-09-18T11:51:00;99904.78;;;26.24;54.35
82418;BME280;72059;53.734;10.260;2023-09-18T11:53:29;99904.00;;;26.32;54.15
82418;BME280;72059;53.734;10.260;2023-09-18T11:55:59;99911.81;;;26.14;54.09
82418;BME280;72059;53.734;10.260;2023-09-18T11:58:27;99908.20;;;25.86;54.82
82418;BME280;72059;53.734;10.260;2023-09-18T12:00:54;99900.08;;;25.70;55.68
82418;BME280;72059;53.734;10.260;2023-09-18T12:03:23;99906.15;;;25.72;55.58
82418;BME280;72059;53.734;10.260;2023-09-18T12:06:01;99902.78;;;25.68;55.72
82418;BME280;72059;53.734;10.260;2023-09-18T12:08:32;99891.45;;;25.85;55.66
82418;BME280;72059;53.734;10.260;2023-09-18T12:10:59;99894.13;;;26.04;55.00
82418;BME280;72059;53.734;10.260;2023-09-18T12:13:30;99900.17;;;26.08;55.19
82418;BME280;72059;53.734;10.260;2023-09-18T12:15:59;99910.78;;;26.08;54.96
82418;BME280;72059;53.734;10.260;2023-09-18T12:18:28;99911.98;;;26.01;55.25
82418;BME280;72059;53.734;10.260;2023-09-18T12:20:55;99922.20;;;26.00;55.70
82418;BME280;72059;53.734;10.260;2023-09-18T12:23:25;99922.19;;;25.89;55.84
82418;BME280;72059;53.734;10.260;2023-09-18T12:25:59;99913.39;;;25.78;55.92
82418;BME280;72059;53.734;10.260;2023-09-18T12:28:27;99916.75;;;25.72;56.16
82418;BME280;72059;53.734;10.260;2023-09-18T12:30:57;99919.74;;;25.64;56.50
82418;BME280;72059;53.734;10.260;2023-09-18T12:33:26;99916.20;;;25.53;56.84
82418;BME280;72059;53.734;10.260;2023-09-18T12:35:53;99903.78;;;25.43;57.22
82418;BME280;72059;53.734;10.260;2023-09-18T12:38:20;99906.64;;;25.38;57.37
82418;BME280;72059;53.734;10.260;2023-09-18T12:40:49;99912.66;;;25.42;56.81
82418;BME280;72059;53.734;10.260;2023-09-18T12:43:18;99912.98;;;25.45;56.23
82418;BME280;72059;53.734;10.260;2023-09-18T12:45:45;99907.70;;;25.34;56.35
82418;BME280;72059;53.734;10.260;2023-09-18T12:48:13;99906.05;;;25.32;56.99
82418;BME280;72059;53.734;10.260;2023-09-18T12:50:42;99900.74;;;25.42;56.86
82418;BME280;72059;53.734;10.260;2023-09-18T12:53:13;99897.82;;;25.81;55.79
82418;BME280;72059;53.734;10.260;2023-09-18T12:55:42;99897.98;;;26.08;53.54